Time;durP1;ratioP1;P1;durP2;ratioP2;P2;SDS_P1;SDS_P2;PMS_P1;PMS_P2;Temp;Humidity;BMP_temperature;BMP_pressure;BME280_temperature;BME280_humidity;BME280_pressure;Samples;Min_cycle;Max_cycle;Signal;HPM_P1;HPM_P2
2024/03/09 01:43:03;;;;;;;37.03;18.70;;;;;;;5.04;73.96;99792.41;4963941;28;20073;-95
2024/03/09 01:45:34;;;;;;;43.75;18.63;;;;;;;4.90;74.89;99788.25;4933768;29;20070;-95
2024/03/09 01:48:04;;;;;;;32.58;18.05;;;;;;;4.87;75.96;99821.53;4939272;28;20035;-96
2024/03/09 01:50:48;;;;;;;38.10;17.98;;;;;;;4.94;75.99;99816.94;4957241;28;20038;-96
2024/03/09 01:53:20;;;;;;;35.70;17.77;;;;;;;4.89;76.29;99803.44;4954501;28;20031;-96
2024/03/09 01:55:51;;;;;;;35.30;18.45;;;;;;;4.85;77.16;99810.25;4958082;28;20075;-96
2024/03/09 01:58:19;;;;;;;35.67;17.75;;;;;;;4.65;77.05;99781.13;4953752;28;20047;-95
2024/03/09 02:00:58;;;;;;;40.08;19.48;;;;;;;4.74;77.38;99785.13;4940987;28;20031;-96
2024/03/09 02:03:25;;;;;;;36.90;18.08;;;;;;;4.77;77.42;99808.69;4968824;28;20155;-96
2024/03/09 02:05:51;;;;;;;38.20;18.35;;;;;;;4.52;77.35;99787.34;4936864;28;20031;-95
2024/03/09 02:08:19;;;;;;;31.70;17.40;;;;;;;4.37;77.79;99785.03;4951593;28;20027;-96
2024/03/09 02:10:45;;;;;;;38.92;18.13;;;;;;;4.45;77.47;99775.94;4936962;28;20031;-95
2024/03/09 02:13:13;;;;;;;43.08;19.17;;;;;;;4.49;76.59;99771.00;4935048;28;20023;-95
2024/03/09 02:15:38;;;;;;;36.92;18.13;;;;;;;4.69;76.52;99811.66;4934243;28;20137;-96
2024/03/09 02:18:10;;;;;;;35.10;17.30;;;;;;;4.46;76.77;99780.22;4938673;28;20519;-96
2024/03/09 02:20:38;;;;;;;;;;;;;;;4.65;77.02;99805.13;4940351;28;20038;-96
2024/03/09 02:23:10;;;;;;;41.08;17.30;;;;;;;4.44;76.42;99771.63;4954955;28;19916;-96
2024/03/09 02:25:39;;;;;;;32.33;17.80;;;;;;;4.51;76.46;99771.59;4940594;28;20051;-96
2024/03/09 02:28:05;;;;;;;33.42;17.00;;;;;;;4.57;77.09;99784.88;4933951;28;20043;-96
2024/03/09 02:30:30;;;;;;;35.33;18.20;;;;;;;4.48;76.75;99782.69;4950001;28;20066;-96
2024/03/09 02:32:57;;;;;;;35.00;16.98;;;;;;;4.56;77.08;99787.75;4934754;28;20030;-96
2024/03/09 02:35:26;;;;;;;34.40;18.00;;;;;;;4.65;76.42;99795.25;4933492;28;20126;-96
2024/03/09 02:37:51;;;;;;;38.88;18.92;;;;;;;4.60;77.14;99780.94;4950295;28;20045;-96
2024/03/09 02:40:18;;;;;;;34.65;17.85;;;;;;;4.76;76.03;99792.91;4951587;28;20417;-95
2024/03/09 02:45:42;;;;;;;35.10;17.38;;;;;;;4.84;75.82;99789.97;4960467;28;20077;-96
2024/03/09 02:48:09;;;;;;;33.30;17.20;;;;;;;4.88;76.05;99804.50;4941460;28;20098;-96
2024/03/09 02:50:36;;;;;;;39.83;19.08;;;;;;;4.72;75.72;99794.38;4952941;28;20039;-96
2024/03/09 02:53:06;;;;;;;45.35;19.38;;;;;;;4.77;76.20;99781.19;4954244;28;20101;-96
2024/03/09 02:55:34;;;;;;;34.70;18.55;;;;;;;4.86;76.87;99791.38;4970268;28;20040;-96
2024/03/09 02:58:02;;;;;;;36.10;18.05;;;;;;;4.65;76.88;99787.25;4938456;28;20043;-96
2024/03/09 03:00:33;;;;;;;38.00;18.83;;;;;;;4.57;77.23;99776.88;4955900;28;20069;-96
2024/03/09 03:05:52;;;;;;;33.60;16.98;;;;;;;4.40;78.77;99767.78;4958291;28;20540;-96
2024/03/09 03:08:23;;;;;;;32.53;17.60;;;;;;;4.66;78.50;99802.22;4940602;28;20053;-96
2024/03/09 03:10:56;;;;;;;32.05;16.67;;;;;;;4.53;77.78;99777.53;4940402;28;20130;-96
2024/03/09 03:16:48;;;;;;;31.97;16.90;;;;;;;4.88;77.80;99803.66;4987204;28;20046;-96
2024/03/09 03:19:33;;;;;;;30.40;16.65;;;;;;;4.68;77.58;99788.66;4937861;28;20287;-95
2024/03/09 03:21:59;;;;;;;31.23;17.17;;;;;;;4.78;77.19;99788.16;4953502;28;20070;-95
2024/03/09 03:24:31;;;;;;;37.28;17.65;;;;;;;4.71;77.13;99776.72;4934306;28;20070;-94
2024/03/09 03:26:57;;;;;;;35.60;16.58;;;;;;;4.89;76.54;99790.09;4949396;28;20050;-96
2024/03/09 03:29:27;;;;;;;30.05;15.82;;;;;;;4.82;76.32;99768.81;4933872;28;20031;-95
2024/03/09 03:31:55;;;;;;;33.33;18.13;;;;;;;4.70;77.36;99772.44;4934914;28;20053;-96
2024/03/09 03:34:21;;;;;;;32.35;17.67;;;;;;;4.91;77.07;99812.03;4949922;28;20487;-95
2024/03/09 03:36:47;;;;;;;39.95;18.45;;;;;;;4.89;77.09;99808.78;4931466;28;20046;-91
2024/03/09 03:39:13;;;;;;;37.10;18.17;;;;;;;4.71;77.04;99774.91;4946737;28;20038;-92
2024/03/09 03:41:38;;;;;;;38.70;19.40;;;;;;;4.92;76.51;99802.19;4932331;28;20493;-92
2024/03/09 03:44:04;;;;;;;38.40;18.73;;;;;;;4.80;76.46;99791.44;4932375;28;20472;-92
2024/03/09 03:46:29;;;;;;;37.63;19.75;;;;;;;4.83;77.00;99802.47;4932074;28;20035;-92
2024/03/09 03:48:55;;;;;;;37.20;19.00;;;;;;;4.85;75.81;99779.03;4947262;28;20031;-92
2024/03/09 03:51:21;;;;;;;37.90;19.13;;;;;;;4.74;75.14;99785.13;4964841;28;20039;-92
2024/03/09 03:53:46;;;;;;;34.58;18.48;;;;;;;4.79;74.69;99785.28;4931815;28;20098;-92
2024/03/09 03:56:12;;;;;;;31.25;17.08;;;;;;;4.99;75.66;99825.09;4947957;28;20046;-93
2024/03/09 03:58:38;;;;;;;34.28;17.08;;;;;;;4.76;76.59;99782.25;4931706;28;20062;-93
2024/03/09 04:01:04;;;;;;;36.42;17.77;;;;;;;4.74;76.81;99800.31;4931998;28;20031;-93
2024/03/09 04:03:32;;;;;;;33.10;18.15;;;;;;;4.82;75.04;99784.03;4948138;28;20027;-92
2024/03/09 04:06:02;;;;;;;34.88;16.83;;;;;;;4.90;74.52;99797.06;4932636;28;20027;-93
2024/03/09 04:08:27;;;;;;;30.08;17.95;;;;;;;4.82;75.60;99789.38;4947639;28;20041;-92
2024/03/09 04:10:54;;;;;;;32.13;17.80;;;;;;;4.81;76.45;99790.38;4948076;28;20090;-93
2024/03/09 04:13:21;;;;;;;32.17;17.23;;;;;;;4.80;76.77;99791.44;4946860;28;20397;-93
2024/03/09 04:15:47;;;;;;;31.08;16.63;;;;;;;4.78;77.10;99791.66;4947336;28;20564;-93
2024/03/09 04:18:13;;;;;;;36.92;16.77;;;;;;;4.76;77.03;99796.38;4931128;28;20164;-91
2024/03/09 04:20:40;;;;;;;31.75;16.20;;;;;;;4.69;77.19;99784.13;4947679;28;20062;-92
2024/03/09 04:23:07;;;;;;;46.92;17.95;;;;;;;4.69;76.85;99789.47;4963749;28;20035;-92
2024/03/09 04:25:36;;;;;;;36.45;18.15;;;;;;;4.58;77.28;99793.69;4936005;28;20042;-92
2024/03/09 04:28:02;;;;;;;36.38;17.73;;;;;;;4.43;77.61;99786.81;4947901;28;20034;-92
2024/03/09 04:30:28;;;;;;;33.20;17.48;;;;;;;4.70;77.44;99820.47;4946161;28;20038;-93
2024/03/09 04:32:55;;;;;;;36.97;18.08;;;;;;;4.56;77.75;99801.88;4946799;28;20128;-92
2024/03/09 04:35:21;;;;;;;34.17;18.50;;;;;;;4.52;77.87;99811.34;4946821;28;20035;-93
2024/03/09 04:37:47;;;;;;;32.92;17.52;;;;;;;4.48;77.99;99804.81;4928037;29;20039;-92
2024/03/09 04:40:15;;;;;;;34.63;17.08;;;;;;;4.37;77.63;99803.69;4929885;28;20094;-92
2024/03/09 04:42:46;;;;;;;37.67;18.02;;;;;;;4.48;77.78;99818.16;4948857;28;20057;-91
2024/03/09 04:45:30;;;;;;;35.90;18.63;;;;;;;4.55;77.98;99823.47;4947389;28;20034;-92
2024/03/09 04:47:55;;;;;;;40.40;17.90;;;;;;;4.32;78.74;99806.19;4935276;28;20070;-92
2024/03/09 04:50:21;;;;;;;33.42;18.10;;;;;;;4.34;77.95;99806.81;4945615;28;20065;-91
2024/03/09 04:52:47;;;;;;;40.28;18.25;;;;;;;4.28;77.19;99806.84;4931115;28;20050;-93
2024/03/09 04:55:16;;;;;;;35.00;17.63;;;;;;;4.13;77.53;99802.66;4930500;28;20043;-93
2024/03/09 04:57:43;;;;;;;37.65;18.40;;;;;;;4.24;77.15;99814.47;4946770;28;20030;-92
2024/03/09 05:00:16;;;;;;;38.05;18.85;;;;;;;4.09;77.41;99806.78;4946604;28;20026;-92
2024/03/09 05:02:47;;;;;;;33.17;17.38;;;;;;;4.04;77.08;99803.91;4947048;28;20456;-91
2024/03/09 05:05:13;;;;;;;37.05;18.00;;;;;;;4.10;77.04;99815.56;4962016;28;20039;-92
2024/03/09 05:07:43;;;;;;;35.30;18.27;;;;;;;4.14;77.03;99814.13;4962504;28;20481;-93
2024/03/09 05:10:10;;;;;;;34.50;16.48;;;;;;;4.20;77.72;99823.91;4946068;28;20035;-93
2024/03/09 05:12:37;;;;;;;37.38;17.92;;;;;;;4.25;77.51;99827.56;4947220;28;20042;-94
2024/03/09 05:15:03;;;;;;;32.08;17.42;;;;;;;4.11;78.00;99820.69;4961519;28;20038;-93
2024/03/09 05:17:28;;;;;;;32.20;17.80;;;;;;;4.18;77.13;99815.31;4961824;28;20493;-93
2024/03/09 05:19:54;;;;;;;33.72;18.17;;;;;;;4.25;76.36;99811.59;4946074;28;20034;-91
2024/03/09 05:22:19;;;;;;;29.40;17.30;;;;;;;4.14;76.49;99814.13;4945685;28;20038;-93
2024/03/09 05:24:46;;;;;;;33.75;17.20;;;;;;;4.19;76.45;99814.28;4930196;28;20030;-93
2024/03/09 05:27:12;;;;;;;31.80;17.40;;;;;;;4.22;75.35;99812.00;4946262;28;20596;-93
2024/03/09 05:29:37;;;;;;;32.55;17.10;;;;;;;4.25;75.82;99840.06;4930020;28;20082;-93
2024/03/09 05:32:05;;;;;;;34.65;18.10;;;;;;;4.26;75.42;99836.38;4951753;29;20479;-92
2024/03/09 05:34:36;;;;;;;32.58;17.35;;;;;;;4.31;75.03;99822.41;4926283;29;20399;-92
2024/03/09 05:37:06;;;;;;;33.08;17.63;;;;;;;4.24;75.50;99819.78;4946615;28;20038;-92
2024/03/09 05:39:36;;;;;;;32.15;17.15;;;;;;;4.34;75.05;99827.31;4937458;29;20046;-93
2024/03/09 05:42:04;;;;;;;35.33;17.70;;;;;;;4.41;75.35;99847.53;4911578;29;20063;-92
2024/03/09 05:44:32;;;;;;;35.60;17.88;;;;;;;4.49;74.88;99851.81;4942824;29;20045;-92
2024/03/09 05:46:59;;;;;;;29.48;16.70;;;;;;;4.53;74.60;99845.00;4943693;29;20031;-92
2024/03/09 05:49:26;;;;;;;34.17;18.02;;;;;;;4.61;74.80;99846.59;4926538;29;20510;-92
2024/03/09 05:51:52;;;;;;;36.20;17.88;;;;;;;4.56;75.46;99846.41;4927067;29;20027;-93
2024/03/09 05:54:17;;;;;;;32.63;18.20;;;;;;;4.61;75.69;99866.06;4927705;29;20042;-92
2024/03/09 05:56:43;;;;;;;34.22;18.80;;;;;;;4.73;75.05;99857.34;4927541;29;20042;-93
2024/03/09 05:59:08;;;;;;;39.28;20.50;;;;;;;4.83;74.07;99834.47;4927040;29;20501;-92
2024/03/09 06:01:34;;;;;;;33.72;18.10;;;;;;;4.80;74.07;99836.78;4925707;29;20039;-93
2024/03/09 06:04:00;;;;;;;31.10;16.63;;;;;;;4.89;73.15;99845.31;4911752;29;20102;-91
2024/03/09 06:06:25;;;;;;;31.42;17.42;;;;;;;4.90;72.98;99842.44;4911846;29;20072;-91
2024/03/09 06:08:51;;;;;;;36.15;16.73;;;;;;;4.99;72.95;99848.31;4942077;29;20051;-91
2024/03/09 06:11:16;;;;;;;31.33;16.48;;;;;;;4.92;72.54;99851.03;4943268;29;20058;-93
2024/03/09 06:13:42;;;;;;;33.05;17.65;;;;;;;5.04;73.18;99873.31;4940487;28;20048;-92
2024/03/09 06:16:09;;;;;;;30.25;16.63;;;;;;;4.80;73.15;99847.44;4954991;28;20073;-92
2024/03/09 06:18:35;;;;;;;29.48;15.90;;;;;;;5.00;72.07;99845.44;4953472;28;20043;-92
2024/03/09 06:21:00;;;;;;;27.95;16.25;;;;;;;5.15;72.15;99850.41;4940708;28;20066;-92
2024/03/09 06:23:27;;;;;;;31.67;16.63;;;;;;;5.24;72.51;99872.28;4946091;28;20026;-93
2024/03/09 06:25:54;;;;;;;32.50;17.65;;;;;;;5.26;72.72;99859.53;4945582;28;20123;-93
2024/03/09 06:28:19;;;;;;;34.17;17.17;;;;;;;5.14;74.02;99864.78;4946360;28;20035;-93
2024/03/09 06:30:45;;;;;;;33.20;17.05;;;;;;;5.33;73.41;99870.94;4945430;28;20039;-92
2024/03/09 06:33:11;;;;;;;33.97;17.75;;;;;;;5.37;72.70;99866.78;4945849;28;20045;-91
2024/03/09 06:35:37;;;;;;;33.90;16.15;;;;;;;5.45;72.50;99869.16;4928149;28;20046;-91
2024/03/09 06:38:06;;;;;;;35.33;16.98;;;;;;;5.49;71.99;99866.06;4944325;28;20043;-92
2024/03/09 06:40:33;;;;;;;30.15;15.13;;;;;;;5.68;70.94;99878.38;4929419;29;20042;-91
2024/03/09 06:43:05;;;;;;;27.05;14.57;;;;;;;5.72;70.98;99876.06;4925148;29;20066;-90
2024/03/09 06:45:30;;;;;;;29.42;15.45;;;;;;;5.70;70.30;99867.47;4948953;29;20047;-90
2024/03/09 06:47:59;;;;;;;30.85;14.57;;;;;;;5.72;70.28;99874.22;4923770;29;20509;-91
2024/03/09 06:50:28;;;;;;;29.95;15.02;;;;;;;5.70;70.88;99881.63;4925411;29;20126;-90
2024/03/09 06:52:53;;;;;;;30.85;14.05;;;;;;;5.73;69.76;99870.50;4925615;29;20043;-90
2024/03/09 06:55:24;;;;;;;31.13;15.75;;;;;;;5.94;69.77;99876.44;4924624;29;20035;-91
2024/03/09 06:57:52;;;;;;;26.63;14.90;;;;;;;5.87;69.85;99871.97;4945648;28;20031;-91
2024/03/09 07:00:18;;;;;;;23.85;13.73;;;;;;;5.72;68.74;99866.19;4942281;28;20031;-91
2024/03/09 07:02:43;;;;;;;25.52;11.95;;;;;;;5.95;69.58;99886.09;4951133;28;20037;-91
2024/03/09 07:05:12;;;;;;;26.02;13.25;;;;;;;6.07;68.88;99895.78;4935560;28;20105;-93
2024/03/09 07:07:38;;;;;;;31.73;14.23;;;;;;;5.91;68.92;99858.16;4944824;28;20412;-92
2024/03/09 07:10:09;;;;;;;26.40;13.68;;;;;;;6.13;68.17;99880.72;4948513;28;20122;-94
2024/03/09 07:12:40;;;;;;;23.20;13.23;;;;;;;6.18;68.35;99880.84;4946616;28;20058;-94
2024/03/09 07:15:15;;;;;;;24.33;14.10;;;;;;;6.15;68.52;99870.59;4950481;28;20054;-94
2024/03/09 07:17:45;;;;;;;24.85;13.57;;;;;;;6.18;67.83;99862.13;4951923;28;20038;-95
2024/03/09 07:20:16;;;;;;;27.65;12.80;;;;;;;6.32;67.12;99872.66;4950792;28;20115;-95
2024/03/09 07:22:42;;;;;;;24.13;12.20;;;;;;;6.22;66.56;99841.91;4950534;28;20062;-94
2024/03/09 07:25:14;;;;;;;24.52;12.63;;;;;;;6.50;66.69;99875.25;4950065;28;20645;-94
2024/03/09 07:27:41;;;;;;;23.08;12.82;;;;;;;6.58;65.95;99893.66;4935313;28;20107;-92
2024/03/09 07:30:14;;;;;;;24.77;12.02;;;;;;;6.43;66.16;99867.34;4952223;28;20118;-94
2024/03/09 07:32:43;;;;;;;21.85;11.63;;;;;;;6.64;64.88;99868.66;4948699;29;20047;-92
2024/03/09 07:35:14;;;;;;;24.23;12.65;;;;;;;6.52;66.02;99869.69;4920195;29;20490;-94
2024/03/09 07:37:52;;;;;;;21.13;12.07;;;;;;;6.52;65.26;99858.97;4949998;29;20075;-94
2024/03/09 07:40:21;;;;;;;21.88;11.85;;;;;;;6.69;65.72;99857.25;4916690;29;20089;-93
2024/03/09 07:42:48;;;;;;;26.73;12.50;;;;;;;6.62;66.01;99848.50;4929659;29;20043;-93
2024/03/09 07:45:14;;;;;;;21.65;11.30;;;;;;;6.74;65.38;99864.59;4930498;29;20027;-92
2024/03/09 07:47:41;;;;;;;21.85;11.52;;;;;;;6.66;65.58;99858.53;4914228;29;20042;-94
2024/03/09 07:50:13;;;;;;;19.20;10.98;;;;;;;6.90;65.33;99858.56;4929980;29;20039;-94
2024/03/09 07:52:39;;;;;;;;;;;;;;;7.31;64.82;99890.81;4932138;29;20046;-94
2024/03/09 07:55:05;;;;;;;26.30;10.50;;;;;;;7.26;64.47;99873.56;4949196;29;19910;-95
2024/03/09 07:57:31;;;;;;;24.70;11.48;;;;;;;7.47;64.02;99872.16;4915503;29;20035;-94
2024/03/09 07:59:56;;;;;;;16.92;10.35;;;;;;;7.66;63.56;99883.53;4928131;29;20027;-95
2024/03/09 08:02:29;;;;;;;19.38;10.27;;;;;;;7.84;62.34;99869.16;4928607;29;20042;-94
2024/03/09 08:04:57;;;;;;;22.08;10.98;;;;;;;7.78;63.01;99854.03;4929323;29;20031;-95
2024/03/09 08:07:23;;;;;;;21.25;11.52;;;;;;;7.99;62.52;99867.78;4931273;29;20043;-94
2024/03/09 08:09:48;;;;;;;21.48;11.85;;;;;;;8.09;62.08;99878.72;4929572;29;20032;-95
2024/03/09 08:12:14;;;;;;;26.70;11.35;;;;;;;7.93;61.80;99858.88;4914210;29;20031;-95
2024/03/09 08:14:39;;;;;;;20.20;11.02;;;;;;;8.07;61.45;99870.94;4930019;29;20035;-95
2024/03/09 08:17:06;;;;;;;20.08;11.57;;;;;;;8.22;61.15;99872.28;4928610;29;20474;-94
2024/03/09 08:19:33;;;;;;;22.20;11.25;;;;;;;8.10;60.29;99845.50;4913085;29;20031;-95
2024/03/09 08:21:58;;;;;;;19.38;11.40;;;;;;;8.21;59.67;99846.50;4929951;29;20035;-96
2024/03/09 08:24:26;;;;;;;22.55;11.27;;;;;;;8.33;60.12;99867.91;4930182;28;20466;-92
2024/03/09 08:26:51;;;;;;;20.83;11.05;;;;;;;8.06;60.79;99861.25;4945250;29;20038;-91
2024/03/09 08:29:17;;;;;;;22.10;12.25;;;;;;;8.01;60.83;99857.66;4944645;29;20023;-91
2024/03/09 08:31:43;;;;;;;21.35;12.30;;;;;;;8.01;60.98;99860.31;4957492;29;20039;-90
2024/03/09 08:34:09;;;;;;;24.42;11.82;;;;;;;7.94;61.07;99855.13;4944933;29;20043;-91
2024/03/09 08:36:35;;;;;;;33.55;12.85;;;;;;;7.78;63.11;99839.78;4959766;28;20035;-91
2024/03/09 08:39:00;;;;;;;23.80;12.13;;;;;;;7.55;63.24;99835.31;4911321;29;20580;-91
2024/03/09 08:41:27;;;;;;;25.52;12.40;;;;;;;7.54;63.95;99847.09;4943725;28;20051;-92
2024/03/09 08:43:53;;;;;;;19.38;11.27;;;;;;;7.51;63.10;99834.97;4931722;28;20039;-93
2024/03/09 08:46:19;;;;;;;21.40;11.57;;;;;;;7.50;63.94;99833.34;4939623;28;20023;-93
2024/03/09 08:48:44;;;;;;;22.58;11.88;;;;;;;7.65;63.50;99855.09;4947388;28;20038;-92
2024/03/09 08:51:10;;;;;;;18.58;10.65;;;;;;;7.72;63.23;99824.66;4946553;28;20031;-92
2024/03/09 08:53:35;;;;;;;18.65;10.38;;;;;;;7.90;62.27;99833.31;4963360;28;20038;-91
2024/03/09 08:56:03;;;;;;;18.27;11.18;;;;;;;7.76;63.67;99832.00;4943671;29;20035;-92
2024/03/09 08:58:30;;;;;;;17.83;11.25;;;;;;;7.87;63.77;99835.69;4943783;29;20039;-91
2024/03/09 09:01:11;;;;;;;17.63;10.63;;;;;;;7.97;62.79;99818.94;4947744;28;20034;-91
2024/03/09 09:03:36;;;;;;;20.60;11.63;;;;;;;7.96;63.18;99822.72;4948824;28;20398;-91
2024/03/09 09:06:03;;;;;;;21.30;10.70;;;;;;;7.94;62.97;99828.31;4945908;28;20035;-92
2024/03/09 09:08:29;;;;;;;17.25;9.90;;;;;;;8.14;62.65;99827.88;4947460;28;20110;-92
2024/03/09 09:10:54;;;;;;;42.42;21.10;;;;;;;8.08;64.19;99848.41;4945711;28;20054;-91
2024/03/09 09:13:23;;;;;;;27.45;11.50;;;;;;;8.11;63.79;99833.69;4947268;28;20042;-92
2024/03/09 09:15:48;;;;;;;18.90;11.15;;;;;;;8.34;62.11;99827.38;4963126;28;20031;-91
2024/03/09 09:18:34;;;;;;;22.63;11.43;;;;;;;8.23;62.72;99830.97;4946243;28;20509;-91
2024/03/09 09:21:00;;;;;;;26.42;12.77;;;;;;;8.44;62.94;99832.97;4955668;28;20037;-90
2024/03/09 09:23:25;;;;;;;19.65;10.27;;;;;;;8.41;62.62;99811.19;5000865;28;20116;-93
2024/03/09 09:25:51;;;;;;;20.73;11.05;;;;;;;8.58;61.81;99825.41;4958930;28;20067;-91
2024/03/09 09:28:19;;;;;;;21.52;11.35;;;;;;;8.78;62.04;99837.53;4944339;28;20082;-92
2024/03/09 09:30:45;;;;;;;21.75;11.57;;;;;;;8.87;61.03;99810.03;4957542;28;20026;-94
2024/03/09 09:33:14;;;;;;;18.83;10.60;;;;;;;9.13;60.19;99817.63;4949929;28;20034;-95
2024/03/09 09:35:44;;;;;;;17.38;10.35;;;;;;;9.29;59.14;99800.66;4951786;28;20390;-94
2024/03/09 09:38:09;;;;;;;25.10;11.32;;;;;;;9.29;59.55;99808.72;4948629;28;20580;-92
2024/03/09 09:40:35;;;;;;;19.33;10.20;;;;;;;9.52;59.20;99821.09;4946847;28;20078;-91
2024/03/09 09:43:00;;;;;;;21.05;11.50;;;;;;;9.50;58.58;99826.72;4932928;28;20078;-92
2024/03/09 09:45:29;;;;;;;16.77;9.80;;;;;;;9.73;58.52;99835.59;4930552;28;20031;-92
2024/03/09 09:47:56;;;;;;;20.42;10.57;;;;;;;9.97;58.17;99829.94;4932979;28;20039;-92
2024/03/09 09:50:22;;;;;;;16.75;9.45;;;;;;;9.85;56.67;99812.06;4924733;29;20058;-91
2024/03/09 09:52:51;;;;;;;19.23;10.73;;;;;;;10.05;57.57;99816.03;4927521;29;20110;-90
2024/03/09 09:55:19;;;;;;;22.42;12.80;;;;;;;10.32;56.98;99816.84;4945138;29;20058;-91
2024/03/09 09:57:48;;;;;;;21.60;11.77;;;;;;;10.32;58.12;99824.13;4929336;29;20113;-91
2024/03/09 10:00:23;;;;;;;17.95;10.40;;;;;;;10.25;57.70;99816.25;4927811;29;20063;-92
2024/03/09 10:02:48;;;;;;;18.58;10.77;;;;;;;10.43;56.38;99820.44;4914311;29;20045;-91
2024/03/09 10:05:14;;;;;;;19.15;10.20;;;;;;;10.34;56.47;99805.84;4944888;29;20417;-93
2024/03/09 10:08:01;;;;;;;19.00;10.88;;;;;;;10.31;56.31;99788.34;4927848;29;20090;-92
2024/03/09 10:10:49;;;;;;;20.90;10.43;;;;;;;10.32;57.09;99827.63;4945167;29;20482;-92
2024/03/09 10:13:15;;;;;;;17.55;10.18;;;;;;;10.32;56.00;99799.91;4871218;29;20040;-92
2024/03/09 10:15:50;;;;;;;22.73;10.93;;;;;;;10.23;57.29;99809.47;4887184;29;20456;-92
2024/03/09 10:18:17;;;;;;;21.33;11.13;;;;;;;9.98;57.50;99783.13;4871952;29;20146;-92
2024/03/09 10:20:42;;;;;;;18.85;10.38;;;;;;;10.10;57.24;99776.53;4894339;29;20040;-93
2024/03/09 10:23:11;;;;;;;17.73;10.52;;;;;;;10.60;55.69;99811.41;4891526;29;20105;-92
2024/03/09 10:25:41;;;;;;;17.63;9.88;;;;;;;10.30;54.92;99775.94;4880065;29;20052;-92
2024/03/09 10:28:10;;;;;;;22.50;9.25;;;;;;;10.50;54.73;99798.72;4889326;29;20044;-92
2024/03/09 10:30:40;;;;;;;16.95;9.75;;;;;;;10.37;55.29;99764.94;4884641;29;20115;-92
2024/03/09 10:33:12;;;;;;;19.55;10.02;;;;;;;10.33;55.64;99779.97;4879265;29;20048;-90
2024/03/09 10:35:40;;;;;;;;;;;;;;;10.31;56.07;99796.41;4871292;29;20566;-92
2024/03/09 10:38:05;;;;;;;17.20;9.95;;;;;;;10.07;56.51;99787.81;4895092;29;19983;-90
2024/03/09 10:40:31;;;;;;;14.52;9.20;;;;;;;10.02;56.17;99773.47;4885287;29;20052;-91
2024/03/09 10:42:56;;;;;;;18.60;9.50;;;;;;;10.10;55.83;99763.06;4852182;29;20143;-90
2024/03/09 10:45:29;;;;;;;16.52;9.77;;;;;;;10.23;56.29;99779.84;4923537;29;20233;-94
2024/03/09 10:47:55;;;;;;;16.85;8.98;;;;;;;10.12;56.45;99754.75;4940635;29;20535;-90
2024/03/09 10:50:28;;;;;;;16.58;9.80;;;;;;;10.11;56.88;99745.88;4956114;28;20026;-90
2024/03/09 10:53:00;;;;;;;13.23;7.78;;;;;;;10.42;55.14;99775.75;4956174;28;20491;-91
2024/03/09 10:55:47;;;;;;;16.23;9.50;;;;;;;10.38;55.10;99758.50;4932879;28;20516;-91
2024/03/09 10:58:15;;;;;;;14.57;7.85;;;;;;;10.42;54.91;99748.03;4945475;29;20070;-91
2024/03/09 11:00:42;;;;;;;14.60;8.27;;;;;;;10.52;54.71;99761.53;4930997;28;20039;-91
2024/03/09 11:03:08;;;;;;;17.33;8.65;;;;;;;10.53;55.52;99760.50;4959821;28;20042;-91
2024/03/09 11:05:37;;;;;;;20.40;9.27;;;;;;;10.45;55.24;99742.13;4960169;28;20046;-91
2024/03/09 11:08:04;;;;;;;14.88;8.73;;;;;;;10.49;55.50;99735.97;4951032;29;20031;-91
2024/03/09 11:10:29;;;;;;;16.73;9.93;;;;;;;10.52;56.47;99745.38;4935870;28;20038;-92
2024/03/09 11:12:55;;;;;;;15.13;8.70;;;;;;;10.18;56.25;99734.88;4947699;29;20470;-93
2024/03/09 11:15:25;;;;;;;12.30;7.75;;;;;;;10.35;55.54;99726.69;4942295;28;20497;-94
2024/03/09 11:17:53;;;;;;;13.07;8.38;;;;;;;10.45;55.60;99724.09;4960560;28;20031;-90
2024/03/09 11:20:22;;;;;;;14.05;7.47;;;;;;;10.49;55.13;99735.97;4945759;28;20039;-90
2024/03/09 11:22:47;;;;;;;11.68;7.53;;;;;;;10.53;55.10;99738.94;4960811;28;20035;-92
2024/03/09 11:25:14;;;;;;;13.27;7.28;;;;;;;10.49;54.31;99708.22;4978768;28;20042;-91
2024/03/09 11:27:42;;;;;;;14.13;8.18;;;;;;;10.59;54.39;99719.06;4947171;28;20094;-92
2024/03/09 11:30:08;;;;;;;11.80;7.47;;;;;;;10.44;54.19;99703.63;4946883;28;20035;-91
2024/03/09 11:35:32;;;;;;;13.65;7.40;;;;;;;10.83;53.92;99716.78;4957867;28;20039;-93
2024/03/09 11:38:09;;;;;;;11.30;7.10;;;;;;;10.75;53.35;99709.19;4944888;28;20035;-92
2024/03/09 11:40:35;;;;;;;10.70;7.18;;;;;;;10.83;53.35;99697.09;4955107;28;20604;-92
2024/03/09 11:43:04;;;;;;;12.00;7.10;;;;;;;10.99;53.06;99704.19;4942451;29;20078;-93
2024/03/09 11:45:40;;;;;;;12.20;7.40;;;;;;;10.98;52.59;99699.06;4949389;28;20030;-91
2024/03/09 11:48:08;;;;;;;11.43;6.82;;;;;;;10.72;53.25;99686.28;4946264;28;20527;-93
2024/03/09 11:50:38;;;;;;;11.55;7.32;;;;;;;10.91;53.70;99685.81;4945877;28;20031;-92
2024/03/09 11:53:04;;;;;;;10.73;6.72;;;;;;;11.09;52.54;99696.16;4960399;28;20066;-94
2024/03/09 11:55:31;;;;;;;11.38;7.05;;;;;;;11.31;52.62;99708.63;4930167;29;20047;-91
2024/03/09 11:57:57;;;;;;;10.00;6.47;;;;;;;11.24;51.92;99681.09;4925004;29;20138;-92
2024/03/09 12:00:23;;;;;;;13.90;7.57;;;;;;;11.22;52.74;99688.63;4925889;29;20126;-92
2024/03/09 12:02:50;;;;;;;13.25;7.13;;;;;;;11.36;52.04;99678.97;4946792;28;20214;-94
2024/03/09 12:05:15;;;;;;;11.35;7.13;;;;;;;11.46;52.43;99689.00;4962827;28;20055;-92
2024/03/09 12:07:50;;;;;;;12.32;7.72;;;;;;;11.39;52.09;99667.66;4946865;28;20205;-92
2024/03/09 12:10:19;;;;;;;12.50;7.00;;;;;;;11.35;52.86;99682.78;4956394;28;20022;-92
2024/03/09 12:12:45;;;;;;;11.02;6.85;;;;;;;11.07;52.59;99670.53;4941140;28;20030;-92
2024/03/09 12:15:11;;;;;;;12.23;6.90;;;;;;;11.21;53.04;99674.38;4938942;28;20075;-91
2024/03/09 12:17:40;;;;;;;9.88;6.65;;;;;;;11.21;51.97;99652.81;4975594;28;20042;-92
2024/03/09 12:20:07;;;;;;;11.60;6.85;;;;;;;11.38;52.09;99655.25;4947267;28;20058;-92
2024/03/09 12:22:32;;;;;;;11.68;6.75;;;;;;;11.52;52.36;99661.75;4964186;28;20122;-92
2024/03/09 12:24:59;;;;;;;17.08;6.80;;;;;;;11.47;51.23;99648.25;4932161;28;20090;-91
2024/03/09 12:27:26;;;;;;;12.23;7.05;;;;;;;11.67;51.33;99670.94;4947500;28;20142;-91
2024/03/09 12:29:53;;;;;;;9.68;6.13;;;;;;;11.70;51.35;99673.94;4950423;28;20039;-90
2024/03/09 12:32:19;;;;;;;10.27;6.47;;;;;;;11.71;50.37;99663.94;4966236;28;20039;-92
2024/03/09 12:34:52;;;;;;;11.02;6.30;;;;;;;11.68;50.44;99640.19;4963576;28;20035;-92
2024/03/09 12:37:27;;;;;;;11.48;6.55;;;;;;;11.76;50.12;99655.84;4944799;29;20573;-92
2024/03/09 12:40:22;;;;;;;10.05;7.00;;;;;;;11.67;50.95;99636.69;4944245;29;20046;-92
2024/03/09 12:42:48;;;;;;;17.45;12.25;;;;;;;11.81;51.15;99644.25;4949233;28;20505;-93
2024/03/09 12:45:24;;;;;;;14.30;7.63;;;;;;;11.87;51.12;99654.78;4967583;28;20124;-92
2024/03/09 12:47:56;;;;;;;14.45;7.45;;;;;;;11.90;51.44;99651.56;4948407;28;20039;-93
2024/03/09 12:50:22;;;;;;;9.23;6.47;;;;;;;11.82;50.53;99648.56;4926061;29;20074;-93
2024/03/09 12:52:51;;;;;;;10.60;6.53;;;;;;;11.95;50.73;99647.25;4947492;28;20031;-92
2024/03/09 12:55:17;;;;;;;13.48;6.53;;;;;;;11.90;50.44;99635.38;4944075;28;20118;-92
2024/03/09 12:57:54;;;;;;;14.23;6.75;;;;;;;12.08;50.76;99646.72;4947469;28;20122;-92
2024/03/09 13:00:23;;;;;;;9.90;6.70;;;;;;;12.00;50.62;99647.25;4947122;28;20046;-92
2024/03/09 13:02:50;;;;;;;11.63;6.45;;;;;;;11.98;50.77;99636.72;4947028;28;20038;-92
2024/03/09 13:05:19;;;;;;;10.10;6.57;;;;;;;12.07;49.36;99640.47;4961446;28;20061;-91
2024/03/09 13:07:59;;;;;;;10.57;6.40;;;;;;;12.13;50.24;99652.88;4946995;28;20034;-91
2024/03/09 13:10:30;;;;;;;9.68;6.30;;;;;;;12.03;50.58;99633.19;4932613;28;20026;-94
2024/03/09 13:12:58;;;;;;;7.93;5.55;;;;;;;11.92;50.21;99637.81;4931924;28;20473;-93
2024/03/09 13:18:08;;;;;;;8.80;5.03;;;;;;;12.11;48.75;99640.75;4957102;28;20101;-92
2024/03/09 13:20:37;;;;;;;9.10;5.20;;;;;;;12.00;48.28;99618.38;4937657;28;20101;-93
2024/03/09 13:23:03;;;;;;;8.18;5.40;;;;;;;11.96;47.85;99613.78;4946690;28;20062;-96
2024/03/09 13:25:31;;;;;;;8.73;5.80;;;;;;;12.25;48.13;99647.22;4949831;28;20477;-92
2024/03/09 13:27:57;;;;;;;9.98;5.85;;;;;;;12.24;49.10;99626.72;4940972;28;20027;-92